Klaus Richter

Olheiro-Chefe - FC Augsburg
3 Abr 2027
Sábado
Processo

Personalidade

Adaptabilidade (1) Ambição (1) Controvérsia (17) Lealdade (8) Pressão (15) Profissionalismo (9) Espírito Esportivo (2) Temperamento (2)

Perfil

Estilo de Treinamento Democrático
Licença Continental A
Determinação 8
Gestão de Pessoas 13
Motivação 7
Disciplina 11
Satisfação no Trabalho
66%
Fadiga
0%
Função Olheiro-Chefe
Salário 22.9K p/s
Contrato 14.03.2028

Desempenho

Comportamento Bom
Eficácia do Treinamento
34%
Desenvolvimento do Jogador
70%
Prevenção de Lesões
40%
Implementação Tática
60%

Eventos Recentes

Participou de uma reunião de recrutamento agora
Participou de uma reunião de recrutamento agora
Recomendou um alvo de transferência agora
Recomendou um alvo de transferência agora
Recomendou um alvo de transferência agora
Participou de uma reunião de recrutamento agora
Avaliou um jogador agora
Avaliou um jogador 7d atrás

Monitorando agora

185
Jogador Clube Status Habilidade Confiança Observado Última observação Último voto
Brian Rodríguez Club America Ativo 140 / 118 40% 12 01.04.2027 -
Fidel Ambríz Monterrey Ativo 128 / 139 40% 10 01.04.2027 -
Sergey Pinyaev Lokomotiv Moscow Ativo 134 / 131 40% 11 01.04.2027 -
Helinho Toluca Ativo 121 / 141 40% 9 30.03.2027 -
Sampson Dweh Viktoria Plzen Ativo 140 / 144 40% 5 30.03.2027 -
Sebastián Cáceres Club America Ativo 144 / 131 40% 7 30.03.2027 -
Christos Zafeiris Galatasaray Ativo 147 / 130 40% 1 30.03.2027 -
Yorbe Vertessen Red Bull Salzburg Ativo 125 / 126 40% 9 28.03.2027 -
Haissem Hassan Bloemfontein Celtic Ativo 141 / 131 40% 9 28.03.2027 -
Diego Lainez Tigres Ativo 122 / 126 40% 3 27.03.2027 -
Nazar Voloshyn Dynamo Kyiv Ativo 137 / 138 40% 5 27.03.2027 -
Tristan Degreef Anderlecht Ativo 121 / 131 40% 5 26.03.2027 -
Cristian Shpendi Cesena Ativo 134 / 136 40% 2 26.03.2027 -
Luca Orellano Monterrey Ativo 146 / 142 40% 4 25.03.2027 -
Gabriel Sara Galatasaray Ativo 132 / 150 40% 3 25.03.2027 -
Mario Stroeykens Anderlecht Ativo 127 / 134 40% 2 24.03.2027 -
Ronaldo Rostov Ativo 131 / 116 40% 3 24.03.2027 -
Adu Ares Eibar Ativo 117 / 125 40% 1 24.03.2027 -
Arsène Kouassi FC Lorient Ativo 126 / 130 40% 1 23.03.2027 -
Patrik Wålemark Lech Ativo 123 / 124 40% 6 22.03.2027 -
Jackson Muleka Konyaspor Ativo 140 / 137 40% 2 22.03.2027 -
Israel Reyes Club America Ativo 136 / 146 40% 4 21.03.2027 -
Adrian Benedyczak Kasimpasa Ativo 137 / 118 40% 2 21.03.2027 -
Julien Ponceau Valladolid Ativo 122 / 122 40% 2 21.03.2027 -
Sergio Barreto Pachuca Ativo 139 / 133 40% 3 21.03.2027 -
Alexandr Chernikov Krasnodar Ativo 132 / 133 40% 1 21.03.2027 -
Ilias Sebaoui Sint-Truiden Ativo 123 / 125 40% 7 19.03.2027 -
Vitinho Botafogo Ativo 139 / 139 40% 3 19.03.2027 -
Isma Ruiz Córdoba Ativo 132 / 136 40% 1 19.03.2027 -
Franco Romero Toluca Ativo 122 / 129 40% 6 17.03.2027 -
Rodrigo Huescas FC Copenhagen Ativo 129 / 141 40% 4 17.03.2027 -
Jesús Garza Tigres Ativo 128 / 132 40% 4 17.03.2027 -
Stije Resink AZ Ativo 131 / 131 40% 1 17.03.2027 -
Sabil Hansen Randers Ativo 107 / 104 40% 1 16.03.2027 -
Federico Valentini Forli Ativo 87 / 100 40% 1 16.03.2027 -
Juan Pablo De la Reta Maipú Ativo 109 / 124 40% 1 16.03.2027 -
Felipe Loyola Pisa Ativo 131 / 136 40% 1 16.03.2027 -
Ramón Juárez Club America Ativo 146 / 144 40% 2 12.03.2027 -
Luciano Juba Bahia Ativo 133 / 128 40% 2 12.03.2027 -
Morgan Whittaker Middlesbrough Ativo 138 / 132 40% 1 12.03.2027 -
Diego Costa Krasnodar Ativo 136 / 126 40% 2 11.03.2027 -
Gvidas Gineitis Torino Ativo 129 / 139 40% 2 11.03.2027 -
Vinicius Tobias Shakhtar Ativo 130 / 143 40% 4 09.03.2027 -
Christian Krasnodar Ativo 124 / 144 40% 2 09.03.2027 -
Martinelli Fluminense Ativo 147 / 145 40% 1 09.03.2027 -
Daan Heymans Racing Genk Ativo 127 / 131 40% 1 09.03.2027 -
Allahyar Sayyadmanesh Lech Ativo 128 / 130 40% 3 08.03.2027 -
Richard Ledezma Guadalajara Ativo 147 / 126 40% 5 07.03.2027 -
Federico Pereira Toluca Ativo 132 / 126 40% 4 07.03.2027 Observar
Alexandro Bernabei Internacional Ativo 128 / 125 40% 1 07.03.2027 -
Ignacio Perruzzi San Lorenzo Ativo 131 / 127 40% 1 04.03.2027 -
Alex Tóth Bournemouth Ativo 124 / 128 40% 1 04.03.2027 -
Efraín Álvarez Guadalajara Ativo 140 / 130 40% 9 02.03.2027 -
Matěj Šín AZ Ativo 132 / 134 40% 1 02.03.2027 -
Bryan González Guadalajara Ativo 132 / 129 40% 4 01.03.2027 -
Ozziel Herrera Tigres Ativo 130 / 122 40% 3 01.03.2027 -
Omar Campos Cruz Azul Ativo 117 / 117 40% 1 01.03.2027 -
Joseph Jones Kryvbas Ativo 99 / 105 40% 1 01.03.2027 -
Jakub Adkonis Lechia Ativo 99 / 107 40% 1 01.03.2027 -
Joaquin Seys Club Brugge Ativo 122 / 132 40% 1 01.03.2027 -
Frans Krätzig Red Bull Salzburg Ativo 123 / 122 40% 10 25.02.2027 -
Facundo Pellistri Panathinaikos Ativo 144 / 129 40% 2 23.02.2027 -
Vitão Flamengo Ativo 126 / 131 40% 3 22.02.2027 -
Hélio Varela Maccabi Tel Aviv Ativo 112 / 113 40% 3 22.02.2027 -
César Huerta Pumas UNAM Ativo 126 / 119 40% 1 22.02.2027 -
Thierry Rendall Correia Venezia Ativo 142 / 138 40% 1 22.02.2027 -
Danilo Botafogo Ativo 141 / 138 40% 6 21.02.2027 -
Kiliann Sildillia PSV Ativo 128 / 133 40% 1 21.02.2027 -
Jan Schöppner Heidenheim Ativo 132 / 127 40% 1 18.02.2027 -
Peter Federico Gornik Zabrze Ativo 126 / 116 40% 2 17.02.2027 -
Ismaël Koné Sassuolo Ativo 136 / 128 40% 1 17.02.2027 -
Thibaud Verlinden OH Leuven Ativo 132 / 126 40% 1 14.02.2027 -
Jacob Trenskow Heerenveen Ativo 121 / 115 40% 1 12.02.2027 -
Nail Umyarov Spartak Moscow Ativo 128 / 136 40% 1 09.02.2027 -
Ezequiel Bullaude Santos Laguna Ativo 113 / 124 40% 1 07.02.2027 -
Pedro Vite Pumas UNAM Ativo 116 / 120 40% 1 05.02.2027 -
Nacer Tielemans Mouscron Ativo 140 / 138 40% 1 03.02.2027 -
Michal Kohút Banik Ostrava Ativo 134 / 126 40% 1 03.02.2027 -
Festy Ebosele Basaksehir Ativo 120 / 132 40% 1 02.02.2027 -
Oleh Ocheretko Shakhtar Ativo 122 / 137 40% 4 01.02.2027 -
Ilay Camara Anderlecht Ativo 137 / 133 40% 1 31.01.2027 -
Vinicius Zanocelo Ceará Perdido 130 / 130 40% 2 30.01.2027 -
Abubakr Barry Red Bull Salzburg Perdido 126 / 124 40% 5 25.01.2027 -
Riku Yamane Yokohama F. Marinos Ativo 120 / 130 40% 2 25.01.2027 -
Tanguy Nianzou LOSC Lille Ativo 137 / 128 40% 1 25.01.2027 -
Kevin Lomónaco Independiente Ativo 125 / 127 40% 1 22.01.2027 -
Pedro Henrique Shakhtar Ativo 124 / 133 40% 1 21.01.2027 -
César Huerta Pumas UNAM Perdido 128 / 122 40% 4 20.01.2027 -
Maxence Caqueret Como Ativo 129 / 133 40% 5 20.01.2027 -
Bećir Omeragić Basel Ativo 143 / 138 40% 1 19.01.2027 -
Arturo Cipriani Astra Ativo 142 / 149 40% 5 15.01.2027 -
Marcus Holmgren Pedersen Olympiacos Ativo 131 / 134 40% 2 15.01.2027 -
Mao Hosoya Corinthians Ativo 134 / 135 67% 1 01.01.2027 Aprovar
Federico Pereira Toluca Perdido 135 / 135 68% 1 01.01.2027 Observar
Thiago Almada River Plate Relatório pronto 145 / 146 69% 1 01.01.2027 Aprovar
Kaio Jorge Cruzeiro Relatório pronto 138 / 140 68% 1 01.01.2027 Aprovar
Alvyn Sanches Young Boys Ativo 134 / 139 40% 10 27.12.2026 -
Metinho Basel Ativo 132 / 126 40% 8 26.12.2026 -
Danil Glebov Dinamo Moscow Ativo 138 / 137 40% 1 22.12.2026 -
Philip Otele Basel Ativo 129 / 119 40% 4 21.12.2026 -
Arsenii Batahov Trabzonspor Ativo 137 / 134 40% 1 19.12.2026 -
Maurits Kjærgaard Red Bull Salzburg Ativo 134 / 126 40% 9 18.12.2026 -
Can Bozdogan Lazio Ativo 126 / 120 40% 4 18.12.2026 -
Matteo di Giusto Luzern Ativo 120 / 121 40% 3 16.12.2026 -
Brenner Vasco da Gama Ativo 125 / 128 40% 1 11.12.2026 -
Odin Bjørtuft Bodo/Glimt Ativo 145 / 133 40% 1 11.12.2026 -
Tiago Djaló Besiktas Ativo 130 / 136 40% 1 11.12.2026 -
Alan Velasco Boca Juniors Ativo 131 / 128 40% 5 08.12.2026 -
Mattia Zanotti Lugano Ativo 129 / 130 40% 7 06.12.2026 -
Caio Alexandre Bahia Ativo 125 / 145 40% 1 04.12.2026 -
Eric Ramires Bragantino Ativo 128 / 125 40% 1 01.12.2026 -
Tomáš Rigo Stoke City Ativo 122 / 130 40% 1 01.12.2026 -
Cesar Corona Veracruz Ativo 132 / 137 40% 6 27.11.2026 -
Exequiel Zeballos Boca Juniors Ativo 128 / 139 40% 3 27.11.2026 -
Isaac Schmidt Young Boys Ativo 123 / 127 40% 5 25.11.2026 -
Nuno Moreira Vasco da Gama Ativo 128 / 127 40% 1 25.11.2026 -
Sergio Quintero La Equidad Ativo 126 / 134 40% 2 24.11.2026 -
Matheuzinho Corinthians Ativo 139 / 123 40% 1 23.11.2026 -
Jaminton Campaz Rosario Central Ativo 115 / 115 40% 4 21.11.2026 -
José Paradela Cruz Azul Ativo 151 / 138 40% 4 20.11.2026 -
Iván Martín Racing Club Ativo 153 / 133 40% 4 20.11.2026 Observar
Matko Miljevic Racing Club Ativo 138 / 121 40% 4 19.11.2026 -
Carlos Palacios Boca Juniors Ativo 131 / 125 40% 1 19.11.2026 -
Lorenzo Pirola Olympiacos Ativo 128 / 131 40% 1 19.11.2026 -
Junnosuke Suzuki FC Copenhagen Ativo 128 / 127 40% 1 18.11.2026 -
Victor Lind Hammarby Ativo 119 / 123 40% 2 12.11.2026 -
Marcel Ruiz Toluca Ativo 131 / 131 40% 5 10.11.2026 -
Brian Gutiérrez Guadalajara Ativo 118 / 122 40% 1 10.11.2026 -
Jeon Jin-Woo Albirex Niigata Ativo 119 / 137 40% 1 09.11.2026 -
Alan Lescano Argentinos Juniors Ativo 132 / 139 40% 1 08.11.2026 -
Luciano Gondou CSKA Moscow Ativo 126 / 123 40% 1 08.11.2026 -
Kevin Zenón Boca Juniors Ativo 133 / 126 40% 1 08.11.2026 -
Jens Petter Hauge Bodo/Glimt Ativo 134 / 142 40% 2 07.11.2026 -
Henry Mosquera Bragantino Ativo 123 / 131 40% 1 06.11.2026 -
Francis Amuzu Grêmio Ativo 130 / 132 40% 1 06.11.2026 -
Carlos Martín Atlético Madrid Ativo 129 / 128 40% 1 04.11.2026 -
Emil Ceïde Rosenborg Ativo 134 / 129 40% 1 03.11.2026 -
Talles Magno New York City Ativo 124 / 135 40% 2 26.10.2026 -
Erik Lira Cruz Azul Ativo 132 / 139 40% 2 24.10.2026 -
Adalberto Carrasquilla Pumas UNAM Ativo 122 / 122 40% 2 17.10.2026 -
Santiago Montiel Independiente Ativo 133 / 136 40% 3 15.10.2026 -
Tomás Chancalay Minnesota United FC Ativo 115 / 116 40% 5 15.10.2026 -
Joaquín Pereyra Minnesota United FC Ativo 143 / 118 40% 2 13.10.2026 -
André Luiz Sporting Kansas City Ativo 119 / 128 40% 1 10.10.2026 -
Pedro Malheiro Al Wasl Ativo 128 / 129 40% 1 09.10.2026 -
Bryan Ramírez FC Cincinnati Ativo 138 / 134 40% 3 05.10.2026 -
Alex Luna Instituto Ativo 131 / 123 40% 3 02.10.2026 -
César Araújo Tigres Ativo 113 / 125 40% 1 29.09.2026 -
Tiago Palacios Estudiantes Ativo 131 / 121 40% 1 26.09.2026 -
Robert FC Copenhagen Ativo 113 / 133 40% 2 21.09.2026 -
Kimito Nono Gamba Osaka Ativo 127 / 136 40% 1 20.09.2026 -
Facundo Mura Inter Miami CF Ativo 138 / 118 40% 1 19.09.2026 -
Diego Luna Real Salt Lake Ativo 130 / 130 40% 1 18.09.2026 -
Leandro Lozano Boca Juniors Ativo 127 / 121 40% 1 16.09.2026 -
Marcos López San Martín Ativo 122 / 126 40% 2 15.09.2026 -
Juan Pablo Domínguez Leon Ativo 140 / 119 40% 1 14.09.2026 -
Michy Fellaini KV Oostende Ativo 140 / 130 40% 1 09.09.2026 -
Jesus Ferreira Seattle Sounders Ativo 142 / 131 40% 1 09.09.2026 -
Lucas Sanabria LA Galaxy Ativo 116 / 125 40% 1 07.09.2026 -
Juan Bisanz Huracán Ativo 115 / 117 40% 1 07.09.2026 -
Breno Bidon Corinthians Ativo 136 / 130 40% 1 04.09.2026 -
Jones El-Abdellaoui Celta Ativo 130 / 134 40% 1 04.09.2026 -
Chris Lokesa Waasland-Beveren Ativo 113 / 130 40% 1 04.09.2026 -
Elías Báez Atlanta United FC Ativo 111 / 122 40% 2 03.09.2026 -
Mathias De Amorim Famalicao Ativo 122 / 126 40% 1 03.09.2026 -
Lautaro Vargas Villarreal Ativo 124 / 120 40% 1 02.09.2026 -
Nahuel Herrera Penarol Ativo 124 / 135 40% 1 02.09.2026 -
Eliás Montiel Pachuca Ativo 128 / 128 40% 1 02.09.2026 -
Badredine Bouanani VfB Stuttgart Ativo 135 / 130 40% 1 31.08.2026 -
Othmane Maamma Watford Ativo 116 / 133 40% 1 31.08.2026 -
Joel Godoy Sevilla Ativo 112 / 118 40% 1 27.08.2026 -
Obed Vargas Atlético Madrid Ativo 121 / 120 40% 1 27.08.2026 -
Julián Bazán New York Red Bulls Ativo 102 / 131 40% 1 24.08.2026 -
Furkan Demir Borussia Mönchengladbach Ativo 126 / 118 40% 1 24.08.2026 -
Josen Escobar Atlético Madrid Ativo 123 / 125 40% 1 24.08.2026 -
Axel Kayombo Sturm Graz Ativo 103 / 111 40% 1 12.08.2026 -
Yoshan Valois Lanús Ativo 115 / 127 40% 1 12.08.2026 -
Dilan Godoy Vélez Ativo 122 / 121 40% 1 11.08.2026 -
Rocco Vata Watford Ativo 126 / 123 40% 1 11.08.2026 -
Xavier Biscayzacú Defensor Sporting Ativo 132 / 129 40% 1 11.08.2026 -
Nicolò Tresoldi Club Brugge Ativo 133 / 130 40% 1 10.08.2026 -
Leo Castledine Middlesbrough Ativo 132 / 130 40% 1 10.08.2026 -
Luther Zwane Platinum Stars Ativo 100 / 111 40% 1 10.08.2026 -
Philippe Keny Zurich Ativo 117 / 115 40% 1 02.08.2026 -
Johannes Eggestein Austria Wien Ativo 118 / 126 40% 1 02.08.2026 -